sensor_id;sensor_type;location;lat;lon;timestamp;temperature;humidity
33207;DHT22;19565;46.602;11.534;2023-03-11T00:00:17;9.30;99.90
33207;DHT22;19565;46.602;11.534;2023-03-11T00:02:46;9.40;99.90
33207;DHT22;19565;46.602;11.534;2023-03-11T00:05:16;9.40;99.90
33207;DHT22;19565;46.602;11.534;2023-03-11T00:07:45;9.40;99.90
33207;DHT22;19565;46.602;11.534;2023-03-11T00:10:14;9.30;99.90
33207;DHT22;19565;46.602;11.534;2023-03-11T00:12:43;9.20;99.90
33207;DHT22;19565;46.602;11.534;2023-03-11T00:15:11;9.00;99.90
33207;DHT22;19565;46.602;11.534;2023-03-11T00:17:41;9.00;99.90
33207;DHT22;19565;46.602;11.534;2023-03-11T00:20:17;9.10;99.90
33207;DHT22;19565;46.602;11.534;2023-03-11T00:22:45;9.10;99.90
33207;DHT22;19565;46.602;11.534;2023-03-11T00:25:14;9.10;99.90
33207;DHT22;19565;46.602;11.534;2023-03-11T00:27:42;9.00;99.90
33207;DHT22;19565;46.602;11.534;2023-03-11T00:30:11;8.90;99.90
33207;DHT22;19565;46.602;11.534;2023-03-11T00:32:41;8.90;99.90
33207;DHT22;19565;46.602;11.534;2023-03-11T00:35:11;9.00;99.90
33207;DHT22;19565;46.602;11.534;2023-03-11T00:37:40;9.10;99.90
33207;DHT22;19565;46.602;11.534;2023-03-11T00:40:11;9.00;99.90
33207;DHT22;19565;46.602;11.534;2023-03-11T00:42:40;9.10;99.90
33207;DHT22;19565;46.602;11.534;2023-03-11T00:45:08;9.10;99.90
33207;DHT22;19565;46.602;11.534;2023-03-11T00:47:36;9.10;99.90
33207;DHT22;19565;46.602;11.534;2023-03-11T00:50:08;9.10;99.80
33207;DHT22;19565;46.602;11.534;2023-03-11T00:52:38;9.10;99.80
33207;DHT22;19565;46.602;11.534;2023-03-11T00:55:06;9.00;99.90
33207;DHT22;19565;46.602;11.534;2023-03-11T00:57:34;8.90;99.90
33207;DHT22;19565;46.602;11.534;2023-03-11T01:00:03;8.90;99.90
33207;DHT22;19565;46.602;11.534;2023-03-11T01:02:34;8.90;99.90
33207;DHT22;19565;46.602;11.534;2023-03-11T01:05:02;9.00;99.70
33207;DHT22;19565;46.602;11.534;2023-03-11T01:07:32;9.00;99.50
33207;DHT22;19565;46.602;11.534;2023-03-11T01:10:00;9.00;99.50
33207;DHT22;19565;46.602;11.534;2023-03-11T01:12:28;8.90;99.60
33207;DHT22;19565;46.602;11.534;2023-03-11T01:14:56;8.80;99.40
33207;DHT22;19565;46.602;11.534;2023-03-11T01:17:24;8.80;99.60
33207;DHT22;19565;46.602;11.534;2023-03-11T01:19:52;8.80;99.40
33207;DHT22;19565;46.602;11.534;2023-03-11T01:22:20;8.70;99.40
33207;DHT22;19565;46.602;11.534;2023-03-11T01:24:50;8.70;99.50
33207;DHT22;19565;46.602;11.534;2023-03-11T01:27:18;8.60;99.40
33207;DHT22;19565;46.602;11.534;2023-03-11T01:29:46;8.60;99.30
33207;DHT22;19565;46.602;11.534;2023-03-11T01:32:14;8.60;99.20
33207;DHT22;19565;46.602;11.534;2023-03-11T01:34:42;8.50;99.30
33207;DHT22;19565;46.602;11.534;2023-03-11T01:37:10;8.50;99.30
33207;DHT22;19565;46.602;11.534;2023-03-11T01:39:38;8.40;99.30
33207;DHT22;19565;46.602;11.534;2023-03-11T01:42:07;8.10;99.40
33207;DHT22;19565;46.602;11.534;2023-03-11T01:44:35;7.80;99.90
33207;DHT22;19565;46.602;11.534;2023-03-11T01:47:33;7.80;99.90
33207;DHT22;19565;46.602;11.534;2023-03-11T01:50:04;8.00;99.90
33207;DHT22;19565;46.602;11.534;2023-03-11T01:52:32;8.20;99.90
33207;DHT22;19565;46.602;11.534;2023-03-11T01:55:00;8.30;99.90
33207;DHT22;19565;46.602;11.534;2023-03-11T01:57:30;8.40;99.40
33207;DHT22;19565;46.602;11.534;2023-03-11T02:00:00;8.30;99.20
33207;DHT22;19565;46.602;11.534;2023-03-11T02:02:34;8.10;99.00
33207;DHT22;19565;46.602;11.534;2023-03-11T02:05:03;7.90;99.60
33207;DHT22;19565;46.602;11.534;2023-03-11T02:07:31;8.00;99.70
33207;DHT22;19565;46.602;11.534;2023-03-11T02:09:59;8.10;99.60
33207;DHT22;19565;46.602;11.534;2023-03-11T02:12:33;8.20;99.40
33207;DHT22;19565;46.602;11.534;2023-03-11T02:15:02;8.30;99.20
33207;DHT22;19565;46.602;11.534;2023-03-11T02:17:31;8.40;99.00
33207;DHT22;19565;46.602;11.534;2023-03-11T02:20:13;8.30;98.60
33207;DHT22;19565;46.602;11.534;2023-03-11T02:22:43;8.30;98.50
33207;DHT22;19565;46.602;11.534;2023-03-11T02:25:18;8.20;98.50
33207;DHT22;19565;46.602;11.534;2023-03-11T02:27:51;8.10;98.50
33207;DHT22;19565;46.602;11.534;2023-03-11T02:30:19;7.60;99.20
33207;DHT22;19565;46.602;11.534;2023-03-11T02:32:49;7.50;99.70
33207;DHT22;19565;46.602;11.534;2023-03-11T02:35:17;7.70;99.60
33207;DHT22;19565;46.602;11.534;2023-03-11T02:37:46;7.90;99.40
33207;DHT22;19565;46.602;11.534;2023-03-11T02:40:38;7.90;99.30
33207;DHT22;19565;46.602;11.534;2023-03-11T02:43:09;7.90;99.10
33207;DHT22;19565;46.602;11.534;2023-03-11T02:45:39;7.70;98.50
33207;DHT22;19565;46.602;11.534;2023-03-11T02:48:09;7.70;98.90
33207;DHT22;19565;46.602;11.534;2023-03-11T02:50:39;7.60;98.60
33207;DHT22;19565;46.602;11.534;2023-03-11T02:53:07;7.80;98.80
33207;DHT22;19565;46.602;11.534;2023-03-11T02:55:35;7.90;98.80
33207;DHT22;19565;46.602;11.534;2023-03-11T02:58:03;7.90;98.60
33207;DHT22;19565;46.602;11.534;2023-03-11T03:00:33;7.90;98.50
33207;DHT22;19565;46.602;11.534;2023-03-11T03:03:01;7.70;97.90
33207;DHT22;19565;46.602;11.534;2023-03-11T03:05:29;7.60;98.60
33207;DHT22;19565;46.602;11.534;2023-03-11T03:07:57;7.70;98.50
33207;DHT22;19565;46.602;11.534;2023-03-11T03:10:25;7.30;98.60
33207;DHT22;19565;46.602;11.534;2023-03-11T03:12:53;7.20;99.10
33207;DHT22;19565;46.602;11.534;2023-03-11T03:15:21;7.40;99.30
33207;DHT22;19565;46.602;11.534;2023-03-11T03:17:51;7.60;99.30
33207;DHT22;19565;46.602;11.534;2023-03-11T03:20:19;7.70;98.80
33207;DHT22;19565;46.602;11.534;2023-03-11T03:22:48;7.80;98.60
33207;DHT22;19565;46.602;11.534;2023-03-11T03:25:17;7.90;98.50
33207;DHT22;19565;46.602;11.534;2023-03-11T03:27:45;7.80;98.10
33207;DHT22;19565;46.602;11.534;2023-03-11T03:30:13;7.90;98.20
33207;DHT22;19565;46.602;11.534;2023-03-11T03:32:41;7.90;97.90
33207;DHT22;19565;46.602;11.534;2023-03-11T03:35:11;7.90;97.50
33207;DHT22;19565;46.602;11.534;2023-03-11T03:37:39;7.90;97.30
33207;DHT22;19565;46.602;11.534;2023-03-11T03:40:08;7.90;97.70
33207;DHT22;19565;46.602;11.534;2023-03-11T03:42:37;7.90;97.50
33207;DHT22;19565;46.602;11.534;2023-03-11T03:45:08;7.90;97.40
33207;DHT22;19565;46.602;11.534;2023-03-11T03:47:36;7.70;97.30
33207;DHT22;19565;46.602;11.534;2023-03-11T03:50:06;7.40;97.60
33207;DHT22;19565;46.602;11.534;2023-03-11T03:52:36;7.50;98.20
33207;DHT22;19565;46.602;11.534;2023-03-11T03:55:05;7.60;98.10
33207;DHT22;19565;46.602;11.534;2023-03-11T03:57:34;7.70;98.20
33207;DHT22;19565;46.602;11.534;2023-03-11T04:00:03;7.70;98.10
33207;DHT22;19565;46.602;11.534;2023-03-11T04:02:34;7.60;97.70
33207;DHT22;19565;46.602;11.534;2023-03-11T04:05:03;7.60;97.60
33207;DHT22;19565;46.602;11.534;2023-03-11T04:07:32;7.50;97.60
33207;DHT22;19565;46.602;11.534;2023-03-11T04:10:03;7.50;97.80
33207;DHT22;19565;46.602;11.534;2023-03-11T04:12:31;7.50;97.80
33207;DHT22;19565;46.602;11.534;2023-03-11T04:14:59;7.00;98.30
33207;DHT22;19565;46.602;11.534;2023-03-11T04:17:27;7.10;98.70
33207;DHT22;19565;46.602;11.534;2023-03-11T04:19:55;7.30;98.60
33207;DHT22;19565;46.602;11.534;2023-03-11T04:22:23;7.40;98.50
33207;DHT22;19565;46.602;11.534;2023-03-11T04:24:51;7.50;98.20
33207;DHT22;19565;46.602;11.534;2023-03-11T04:27:21;7.60;97.90
33207;DHT22;19565;46.602;11.534;2023-03-11T04:29:49;7.60;97.70
33207;DHT22;19565;46.602;11.534;2023-03-11T04:32:17;7.60;97.30
33207;DHT22;19565;46.602;11.534;2023-03-11T04:34:45;7.30;97.40
33207;DHT22;19565;46.602;11.534;2023-03-11T04:37:13;7.30;97.40
33207;DHT22;19565;46.602;11.534;2023-03-11T04:39:41;7.50;97.70
33207;DHT22;19565;46.602;11.534;2023-03-11T04:42:09;7.60;97.60
33207;DHT22;19565;46.602;11.534;2023-03-11T04:44:41;7.60;97.60
33207;DHT22;19565;46.602;11.534;2023-03-11T04:47:09;7.60;97.50
33207;DHT22;19565;46.602;11.534;2023-03-11T04:49:37;7.50;97.00
33207;DHT22;19565;46.602;11.534;2023-03-11T04:52:05;7.30;97.40
33207;DHT22;19565;46.602;11.534;2023-03-11T04:54:33;7.20;97.30
33207;DHT22;19565;46.602;11.534;2023-03-11T04:57:01;7.20;97.40
33207;DHT22;19565;46.602;11.534;2023-03-11T04:59:29;7.10;97.70
33207;DHT22;19565;46.602;11.534;2023-03-11T05:01:59;7.20;97.70
33207;DHT22;19565;46.602;11.534;2023-03-11T05:04:27;7.10;97.60
33207;DHT22;19565;46.602;11.534;2023-03-11T05:06:55;7.00;97.60
33207;DHT22;19565;46.602;11.534;2023-03-11T05:09:23;7.20;97.70
33207;DHT22;19565;46.602;11.534;2023-03-11T05:11:51;7.30;97.90
33207;DHT22;19565;46.602;11.534;2023-03-11T05:14:19;7.30;97.90
33207;DHT22;19565;46.602;11.534;2023-03-11T05:16:47;7.40;97.90
33207;DHT22;19565;46.602;11.534;2023-03-11T05:19:16;7.40;97.60
33207;DHT22;19565;46.602;11.534;2023-03-11T05:22:01;7.20;97.00
33207;DHT22;19565;46.602;11.534;2023-03-11T05:24:29;6.70;97.90
33207;DHT22;19565;46.602;11.534;2023-03-11T05:26:57;6.60;98.10
33207;DHT22;19565;46.602;11.534;2023-03-11T05:29:25;6.80;98.00
33207;DHT22;19565;46.602;11.534;2023-03-11T05:31:53;6.90;97.90
33207;DHT22;19565;46.602;11.534;2023-03-11T05:34:23;7.00;97.80
33207;DHT22;19565;46.602;11.534;2023-03-11T05:36:51;7.10;97.60
33207;DHT22;19565;46.602;11.534;2023-03-11T05:39:19;7.20;97.70
33207;DHT22;19565;46.602;11.534;2023-03-11T05:41:47;7.20;97.20
33207;DHT22;19565;46.602;11.534;2023-03-11T05:44:15;6.80;97.40
33207;DHT22;19565;46.602;11.534;2023-03-11T05:46:43;6.60;98.00
33207;DHT22;19565;46.602;11.534;2023-03-11T05:49:11;6.90;98.20
33207;DHT22;19565;46.602;11.534;2023-03-11T05:51:40;7.00;98.20
33207;DHT22;19565;46.602;11.534;2023-03-11T05:54:08;7.10;98.10
33207;DHT22;19565;46.602;11.534;2023-03-11T05:56:41;7.10;97.60
33207;DHT22;19565;46.602;11.534;2023-03-11T05:59:10;7.10;97.30
33207;DHT22;19565;46.602;11.534;2023-03-11T06:01:42;7.20;97.30
33207;DHT22;19565;46.602;11.534;2023-03-11T06:04:11;7.20;97.00
33207;DHT22;19565;46.602;11.534;2023-03-11T06:06:40;7.20;96.90
33207;DHT22;19565;46.602;11.534;2023-03-11T06:09:11;7.30;97.20
33207;DHT22;19565;46.602;11.534;2023-03-11T06:11:39;7.20;96.90
33207;DHT22;19565;46.602;11.534;2023-03-11T06:14:10;7.10;96.90
33207;DHT22;19565;46.602;11.534;2023-03-11T06:16:38;6.80;96.90
33207;DHT22;19565;46.602;11.534;2023-03-11T06:19:07;6.60;97.50
33207;DHT22;19565;46.602;11.534;2023-03-11T06:21:36;6.50;97.80
33207;DHT22;19565;46.602;11.534;2023-03-11T06:24:06;6.70;97.90
33207;DHT22;19565;46.602;11.534;2023-03-11T06:26:35;7.00;97.90
33207;DHT22;19565;46.602;11.534;2023-03-11T06:29:03;7.10;97.60
33207;DHT22;19565;46.602;11.534;2023-03-11T06:31:31;7.20;97.40
33207;DHT22;19565;46.602;11.534;2023-03-11T06:34:02;7.00;96.90
33207;DHT22;19565;46.602;11.534;2023-03-11T06:36:33;7.00;96.50
33207;DHT22;19565;46.602;11.534;2023-03-11T06:39:02;7.10;96.90
33207;DHT22;19565;46.602;11.534;2023-03-11T06:41:33;7.20;96.90
33207;DHT22;19565;46.602;11.534;2023-03-11T06:44:01;7.20;96.60
33207;DHT22;19565;46.602;11.534;2023-03-11T06:46:29;7.30;96.60
33207;DHT22;19565;46.602;11.534;2023-03-11T06:48:58;7.30;96.80
33207;DHT22;19565;46.602;11.534;2023-03-11T06:51:26;7.30;97.00
33207;DHT22;19565;46.602;11.534;2023-03-11T06:53:54;7.20;96.70
33207;DHT22;19565;46.602;11.534;2023-03-11T06:56:23;7.10;96.30
33207;DHT22;19565;46.602;11.534;2023-03-11T06:58:52;7.10;96.70
33207;DHT22;19565;46.602;11.534;2023-03-11T07:01:23;7.20;96.90
33207;DHT22;19565;46.602;11.534;2023-03-11T07:03:52;7.20;96.40
33207;DHT22;19565;46.602;11.534;2023-03-11T07:06:21;7.30;96.40
33207;DHT22;19565;46.602;11.534;2023-03-11T07:08:51;7.30;96.00
33207;DHT22;19565;46.602;11.534;2023-03-11T07:11:21;7.30;96.00
33207;DHT22;19565;46.602;11.534;2023-03-11T07:13:49;7.20;96.00
33207;DHT22;19565;46.602;11.534;2023-03-11T07:16:20;7.30;96.30
33207;DHT22;19565;46.602;11.534;2023-03-11T07:18:50;7.30;96.30
33207;DHT22;19565;46.602;11.534;2023-03-11T07:21:20;7.40;96.30
33207;DHT22;19565;46.602;11.534;2023-03-11T07:23:51;7.30;96.00
33207;DHT22;19565;46.602;11.534;2023-03-11T07:26:24;7.30;95.80
33207;DHT22;19565;46.602;11.534;2023-03-11T07:28:57;7.40;96.30
33207;DHT22;19565;46.602;11.534;2023-03-11T07:31:28;7.30;96.00
33207;DHT22;19565;46.602;11.534;2023-03-11T07:33:58;7.20;96.40
33207;DHT22;19565;46.602;11.534;2023-03-11T07:36:26;7.20;95.90
33207;DHT22;19565;46.602;11.534;2023-03-11T07:38:55;7.40;95.90
33207;DHT22;19565;46.602;11.534;2023-03-11T07:41:26;7.50;96.20
33207;DHT22;19565;46.602;11.534;2023-03-11T07:43:54;7.50;96.20
33207;DHT22;19565;46.602;11.534;2023-03-11T07:46:24;7.70;96.00
33207;DHT22;19565;46.602;11.534;2023-03-11T07:48:54;7.70;95.70
33207;DHT22;19565;46.602;11.534;2023-03-11T07:51:24;7.70;95.50
33207;DHT22;19565;46.602;11.534;2023-03-11T07:53:53;7.80;95.70
33207;DHT22;19565;46.602;11.534;2023-03-11T07:56:23;7.90;95.60
33207;DHT22;19565;46.602;11.534;2023-03-11T07:58:51;7.90;95.40
33207;DHT22;19565;46.602;11.534;2023-03-11T08:01:21;8.00;95.40
33207;DHT22;19565;46.602;11.534;2023-03-11T08:03:51;8.00;95.50
33207;DHT22;19565;46.602;11.534;2023-03-11T08:06:26;8.00;95.40
33207;DHT22;19565;46.602;11.534;2023-03-11T08:08:54;8.10;95.20
33207;DHT22;19565;46.602;11.534;2023-03-11T08:11:23;8.10;95.40
33207;DHT22;19565;46.602;11.534;2023-03-11T08:13:52;8.10;95.10
33207;DHT22;19565;46.602;11.534;2023-03-11T08:16:21;8.10;94.40
33207;DHT22;19565;46.602;11.534;2023-03-11T08:18:50;8.20;93.50
33207;DHT22;19565;46.602;11.534;2023-03-11T08:21:20;8.30;93.40
33207;DHT22;19565;46.602;11.534;2023-03-11T08:23:50;8.40;92.90
33207;DHT22;19565;46.602;11.534;2023-03-11T08:26:20;8.50;90.70
33207;DHT22;19565;46.602;11.534;2023-03-11T08:28:48;8.60;90.70
33207;DHT22;19565;46.602;11.534;2023-03-11T08:31:18;8.70;91.60
33207;DHT22;19565;46.602;11.534;2023-03-11T08:33:49;8.80;92.50
33207;DHT22;19565;46.602;11.534;2023-03-11T08:36:18;8.90;92.20
33207;DHT22;19565;46.602;11.534;2023-03-11T08:38:46;9.00;91.20
33207;DHT22;19565;46.602;11.534;2023-03-11T08:41:16;9.00;89.80
33207;DHT22;19565;46.602;11.534;2023-03-11T08:43:44;9.10;89.30
33207;DHT22;19565;46.602;11.534;2023-03-11T08:46:20;9.20;89.50
33207;DHT22;19565;46.602;11.534;2023-03-11T08:48:49;9.30;88.50
33207;DHT22;19565;46.602;11.534;2023-03-11T08:51:17;9.40;87.80
33207;DHT22;19565;46.602;11.534;2023-03-11T08:53:46;9.50;87.80
33207;DHT22;19565;46.602;11.534;2023-03-11T08:56:15;9.60;86.50
33207;DHT22;19565;46.602;11.534;2023-03-11T08:58:44;9.70;87.30
33207;DHT22;19565;46.602;11.534;2023-03-11T09:01:12;9.90;85.20
33207;DHT22;19565;46.602;11.534;2023-03-11T09:03:40;10.00;82.00
33207;DHT22;19565;46.602;11.534;2023-03-11T09:06:11;10.20;80.70
33207;DHT22;19565;46.602;11.534;2023-03-11T09:08:41;10.40;78.20
33207;DHT22;19565;46.602;11.534;2023-03-11T09:11:09;10.70;74.90
33207;DHT22;19565;46.602;11.534;2023-03-11T09:13:41;10.80;73.50
33207;DHT22;19565;46.602;11.534;2023-03-11T09:16:11;11.00;72.30
33207;DHT22;19565;46.602;11.534;2023-03-11T09:18:40;11.20;69.80
33207;DHT22;19565;46.602;11.534;2023-03-11T09:21:08;11.40;68.40
33207;DHT22;19565;46.602;11.534;2023-03-11T09:23:37;11.70;66.70
33207;DHT22;19565;46.602;11.534;2023-03-11T09:26:06;11.80;65.70
33207;DHT22;19565;46.602;11.534;2023-03-11T09:28:34;11.80;65.80
33207;DHT22;19565;46.602;11.534;2023-03-11T09:31:04;11.80;64.00
33207;DHT22;19565;46.602;11.534;2023-03-11T09:33:35;11.90;63.60
33207;DHT22;19565;46.602;11.534;2023-03-11T09:36:04;11.90;64.00
33207;DHT22;19565;46.602;11.534;2023-03-11T09:38:33;11.80;63.60
33207;DHT22;19565;46.602;11.534;2023-03-11T09:41:04;11.90;62.90
33207;DHT22;19565;46.602;11.534;2023-03-11T09:43:54;11.90;62.30
33207;DHT22;19565;46.602;11.534;2023-03-11T09:49:45;12.10;62.10
33207;DHT22;19565;46.602;11.534;2023-03-11T09:52:22;12.20;61.90
33207;DHT22;19565;46.602;11.534;2023-03-11T09:54:52;12.30;60.40
33207;DHT22;19565;46.602;11.534;2023-03-11T09:57:24;12.40;61.10
33207;DHT22;19565;46.602;11.534;2023-03-11T09:59:54;12.50;60.00
33207;DHT22;19565;46.602;11.534;2023-03-11T10:02:23;12.60;58.70
33207;DHT22;19565;46.602;11.534;2023-03-11T10:04:56;12.60;58.50
33207;DHT22;19565;46.602;11.534;2023-03-11T10:07:32;12.60;58.90
33207;DHT22;19565;46.602;11.534;2023-03-11T10:10:01;12.70;58.60
33207;DHT22;19565;46.602;11.534;2023-03-11T10:12:39;12.70;58.40
33207;DHT22;19565;46.602;11.534;2023-03-11T10:15:18;12.80;58.90
33207;DHT22;19565;46.602;11.534;2023-03-11T10:17:58;12.70;57.80
33207;DHT22;19565;46.602;11.534;2023-03-11T10:20:37;12.80;58.30
33207;DHT22;19565;46.602;11.534;2023-03-11T10:23:20;12.80;57.80
33207;DHT22;19565;46.602;11.534;2023-03-11T10:25:55;12.90;57.60
33207;DHT22;19565;46.602;11.534;2023-03-11T10:28:29;12.90;58.00
33207;DHT22;19565;46.602;11.534;2023-03-11T10:31:03;13.00;57.10
33207;DHT22;19565;46.602;11.534;2023-03-11T10:33:37;13.00;57.60
33207;DHT22;19565;46.602;11.534;2023-03-11T10:36:13;13.10;57.70
33207;DHT22;19565;46.602;11.534;2023-03-11T10:38:45;13.20;56.70
33207;DHT22;19565;46.602;11.534;2023-03-11T10:41:18;13.20;56.90
33207;DHT22;19565;46.602;11.534;2023-03-11T10:43:51;13.30;56.80
33207;DHT22;19565;46.602;11.534;2023-03-11T10:46:25;13.30;57.10
33207;DHT22;19565;46.602;11.534;2023-03-11T10:48:54;13.40;57.30
33207;DHT22;19565;46.602;11.534;2023-03-11T10:51:25;13.40;56.70
33207;DHT22;19565;46.602;11.534;2023-03-11T10:53:55;13.40;55.90
33207;DHT22;19565;46.602;11.534;2023-03-11T10:56:26;13.50;55.90
33207;DHT22;19565;46.602;11.534;2023-03-11T10:58:55;13.50;55.60
33207;DHT22;19565;46.602;11.534;2023-03-11T11:01:24;13.50;55.60
33207;DHT22;19565;46.602;11.534;2023-03-11T11:03:54;13.60;56.60
33207;DHT22;19565;46.602;11.534;2023-03-11T11:06:27;13.70;55.90
33207;DHT22;19565;46.602;11.534;2023-03-11T11:09:13;13.70;56.00
33207;DHT22;19565;46.602;11.534;2023-03-11T11:11:43;13.70;56.00
33207;DHT22;19565;46.602;11.534;2023-03-11T11:14:43;13.80;55.60
33207;DHT22;19565;46.602;11.534;2023-03-11T11:17:22;13.80;55.40
33207;DHT22;19565;46.602;11.534;2023-03-11T11:19:52;13.90;54.90
33207;DHT22;19565;46.602;11.534;2023-03-11T11:22:24;13.90;54.90
33207;DHT22;19565;46.602;11.534;2023-03-11T11:24:55;13.90;55.30
33207;DHT22;19565;46.602;11.534;2023-03-11T11:27:25;13.90;55.00
33207;DHT22;19565;46.602;11.534;2023-03-11T11:30:13;14.00;55.10
33207;DHT22;19565;46.602;11.534;2023-03-11T11:32:42;13.90;54.80
33207;DHT22;19565;46.602;11.534;2023-03-11T11:35:11;14.10;55.30
33207;DHT22;19565;46.602;11.534;2023-03-11T11:37:43;14.10;54.60
33207;DHT22;19565;46.602;11.534;2023-03-11T11:40:24;14.00;54.90
33207;DHT22;19565;46.602;11.534;2023-03-11T11:42:55;14.10;54.70
33207;DHT22;19565;46.602;11.534;2023-03-11T11:45:30;14.10;54.20
33207;DHT22;19565;46.602;11.534;2023-03-11T11:48:02;14.20;54.30
33207;DHT22;19565;46.602;11.534;2023-03-11T11:50:33;14.20;54.50
33207;DHT22;19565;46.602;11.534;2023-03-11T11:53:12;14.30;53.60
33207;DHT22;19565;46.602;11.534;2023-03-11T11:55:46;14.30;53.30
33207;DHT22;19565;46.602;11.534;2023-03-11T11:58:15;14.40;53.20
33207;DHT22;19565;46.602;11.534;2023-03-11T12:00:57;14.50;53.50
33207;DHT22;19565;46.602;11.534;2023-03-11T12:03:48;14.40;53.20
33207;DHT22;19565;46.602;11.534;2023-03-11T12:06:22;14.50;53.20
33207;DHT22;19565;46.602;11.534;2023-03-11T12:09:05;14.60;52.80
33207;DHT22;19565;46.602;11.534;2023-03-11T12:11:45;14.60;52.70
33207;DHT22;19565;46.602;11.534;2023-03-11T12:14:18;14.70;53.10
33207;DHT22;19565;46.602;11.534;2023-03-11T12:16:53;14.70;52.60
33207;DHT22;19565;46.602;11.534;2023-03-11T12:19:34;14.80;52.30
33207;DHT22;19565;46.602;11.534;2023-03-11T12:22:20;14.90;52.50
33207;DHT22;19565;46.602;11.534;2023-03-11T12:25:04;14.90;52.30
33207;DHT22;19565;46.602;11.534;2023-03-11T12:27:43;14.90;52.20
33207;DHT22;19565;46.602;11.534;2023-03-11T12:30:14;14.90;51.90
33207;DHT22;19565;46.602;11.534;2023-03-11T12:32:48;15.00;51.70
33207;DHT22;19565;46.602;11.534;2023-03-11T12:35:20;15.00;51.70
33207;DHT22;19565;46.602;11.534;2023-03-11T12:38:02;15.00;51.40
33207;DHT22;19565;46.602;11.534;2023-03-11T12:40:57;15.00;50.90
33207;DHT22;19565;46.602;11.534;2023-03-11T12:46:15;14.90;51.10
33207;DHT22;19565;46.602;11.534;2023-03-11T12:48:45;15.10;50.70
33207;DHT22;19565;46.602;11.534;2023-03-11T12:51:37;15.20;50.80
33207;DHT22;19565;46.602;11.534;2023-03-11T12:54:27;15.20;50.20
33207;DHT22;19565;46.602;11.534;2023-03-11T12:56:58;15.20;50.60
33207;DHT22;19565;46.602;11.534;2023-03-11T12:59:48;15.20;50.30
33207;DHT22;19565;46.602;11.534;2023-03-11T13:02:29;15.30;50.00
33207;DHT22;19565;46.602;11.534;2023-03-11T13:05:13;15.30;50.00
33207;DHT22;19565;46.602;11.534;2023-03-11T13:07:48;15.30;49.50
33207;DHT22;19565;46.602;11.534;2023-03-11T13:10:22;15.40;49.20
33207;DHT22;19565;46.602;11.534;2023-03-11T13:13:22;15.40;49.40
33207;DHT22;19565;46.602;11.534;2023-03-11T13:15:50;15.40;49.90
33207;DHT22;19565;46.602;11.534;2023-03-11T13:18:22;15.50;49.50
33207;DHT22;19565;46.602;11.534;2023-03-11T13:20:53;15.50;48.80
33207;DHT22;19565;46.602;11.534;2023-03-11T13:23:29;15.50;48.30
33207;DHT22;19565;46.602;11.534;2023-03-11T13:26:27;15.60;48.50
33207;DHT22;19565;46.602;11.534;2023-03-11T13:29:18;15.60;48.10
33207;DHT22;19565;46.602;11.534;2023-03-11T13:32:00;15.60;48.50
33207;DHT22;19565;46.602;11.534;2023-03-11T13:34:38;15.70;48.20
33207;DHT22;19565;46.602;11.534;2023-03-11T13:37:19;15.70;48.20
33207;DHT22;19565;46.602;11.534;2023-03-11T13:40:09;15.70;48.00
33207;DHT22;19565;46.602;11.534;2023-03-11T13:42:43;15.70;47.90
33207;DHT22;19565;46.602;11.534;2023-03-11T13:45:22;15.60;47.70
33207;DHT22;19565;46.602;11.534;2023-03-11T13:47:55;15.60;48.60
33207;DHT22;19565;46.602;11.534;2023-03-11T13:50:27;15.70;48.00
33207;DHT22;19565;46.602;11.534;2023-03-11T13:52:58;15.70;47.90
33207;DHT22;19565;46.602;11.534;2023-03-11T13:55:31;15.70;47.90
33207;DHT22;19565;46.602;11.534;2023-03-11T13:58:01;15.70;47.70
33207;DHT22;19565;46.602;11.534;2023-03-11T14:00:47;15.80;47.70
33207;DHT22;19565;46.602;11.534;2023-03-11T14:03:17;15.70;47.80
33207;DHT22;19565;46.602;11.534;2023-03-11T14:05:49;15.80;47.20
33207;DHT22;19565;46.602;11.534;2023-03-11T14:08:21;15.80;47.20
33207;DHT22;19565;46.602;11.534;2023-03-11T14:10:53;15.90;47.00
33207;DHT22;19565;46.602;11.534;2023-03-11T14:13:22;15.90;46.90
33207;DHT22;19565;46.602;11.534;2023-03-11T14:15:56;15.90;47.00
33207;DHT22;19565;46.602;11.534;2023-03-11T14:18:32;15.90;47.20
33207;DHT22;19565;46.602;11.534;2023-03-11T14:21:02;16.00;47.00
33207;DHT22;19565;46.602;11.534;2023-03-11T14:23:33;15.90;47.00
33207;DHT22;19565;46.602;11.534;2023-03-11T14:26:05;16.00;47.10
33207;DHT22;19565;46.602;11.534;2023-03-11T14:28:37;16.00;47.20
33207;DHT22;19565;46.602;11.534;2023-03-11T14:31:21;16.10;46.50
33207;DHT22;19565;46.602;11.534;2023-03-11T14:33:54;16.10;47.40
33207;DHT22;19565;46.602;11.534;2023-03-11T14:36:23;16.10;46.60
33207;DHT22;19565;46.602;11.534;2023-03-11T14:38:51;16.10;46.70
33207;DHT22;19565;46.602;11.534;2023-03-11T14:41:19;16.20;46.70
33207;DHT22;19565;46.602;11.534;2023-03-11T14:43:49;16.20;46.40
33207;DHT22;19565;46.602;11.534;2023-03-11T14:46:21;16.20;46.40
33207;DHT22;19565;46.602;11.534;2023-03-11T14:48:51;16.20;46.70
33207;DHT22;19565;46.602;11.534;2023-03-11T14:51:23;16.20;46.60
33207;DHT22;19565;46.602;11.534;2023-03-11T14:54:04;16.20;46.70
33207;DHT22;19565;46.602;11.534;2023-03-11T14:56:35;16.20;46.90
33207;DHT22;19565;46.602;11.534;2023-03-11T14:59:07;16.10;46.80
33207;DHT22;19565;46.602;11.534;2023-03-11T15:01:41;16.00;46.80
33207;DHT22;19565;46.602;11.534;2023-03-11T15:04:11;15.80;47.10
33207;DHT22;19565;46.602;11.534;2023-03-11T15:06:42;15.80;47.30
33207;DHT22;19565;46.602;11.534;2023-03-11T15:09:11;15.70;47.50
33207;DHT22;19565;46.602;11.534;2023-03-11T15:11:44;15.60;47.30
33207;DHT22;19565;46.602;11.534;2023-03-11T15:14:19;15.60;47.70
33207;DHT22;19565;46.602;11.534;2023-03-11T15:16:50;15.50;47.90
33207;DHT22;19565;46.602;11.534;2023-03-11T15:19:31;15.50;47.70
33207;DHT22;19565;46.602;11.534;2023-03-11T15:22:05;15.40;47.80
33207;DHT22;19565;46.602;11.534;2023-03-11T15:24:48;15.40;47.70
33207;DHT22;19565;46.602;11.534;2023-03-11T15:27:26;15.30;48.00
33207;DHT22;19565;46.602;11.534;2023-03-11T15:29:55;15.30;48.10
33207;DHT22;19565;46.602;11.534;2023-03-11T15:32:36;15.20;48.00
33207;DHT22;19565;46.602;11.534;2023-03-11T15:35:14;15.20;48.20
33207;DHT22;19565;46.602;11.534;2023-03-11T15:37:43;15.10;48.50
33207;DHT22;19565;46.602;11.534;2023-03-11T15:40:17;15.10;48.60
33207;DHT22;19565;46.602;11.534;2023-03-11T15:42:46;15.10;48.70
33207;DHT22;19565;46.602;11.534;2023-03-11T15:45:16;15.00;48.70
33207;DHT22;19565;46.602;11.534;2023-03-11T15:47:47;15.00;48.80
33207;DHT22;19565;46.602;11.534;2023-03-11T15:50:20;14.90;49.30
33207;DHT22;19565;46.602;11.534;2023-03-11T15:52:57;14.90;49.30
33207;DHT22;19565;46.602;11.534;2023-03-11T15:55:26;14.80;49.20
33207;DHT22;19565;46.602;11.534;2023-03-11T15:57:59;14.80;49.20